首页
METAR-TAF:

METAR-TAF

机场 :

Rieti, 意大利

纬度: 42-25N, 经度: 012-51E, 海拔: 389米

当前天气观测

该预报发布于8小时和50分钟前的15:50 UTC
风速5节,风向东南
温度 11°C
湿度 87%
气压 1005 hPa
能見度: 9000
多云层高于3500英尺
附近有阵雨

METAR: LIQN 171550Z 13005KT 9000 VCSH BKN035 11/09 Q1005

时间: 01:40 (00:40 UTC)


TAF: 丢失

超过4000个机场的气象观测和天气预报(METAR&TAF报告)。

可查询的气象台以黄色和红色小点在地图上表示。

将鼠标移到小点上方,可查看气象台名称。

然后点击查看天气观测和预报。

如需切换地图:点击带黑十字的绿色按钮放大地图;点击带横线的绿色按钮缩小地图;或者点击绿色箭头查看邻近地区的地图。


METAR-TAF: